createdAt,value
2022-09-13T00:01:05.601Z,0.90
2022-09-13T00:03:33.483Z,0.93
2022-09-13T00:06:16.258Z,1.00
2022-09-13T00:08:43.824Z,1.00
2022-09-13T00:11:26.208Z,1.10
2022-09-13T00:13:54.949Z,1.00
2022-09-13T00:16:25.095Z,0.90
2022-09-13T00:18:53.669Z,1.00
2022-09-13T00:21:22.802Z,1.02
2022-09-13T00:23:56.976Z,1.10
2022-09-13T00:26:27.052Z,1.00
2022-09-13T00:28:57.083Z,0.90
2022-09-13T00:31:35.599Z,0.88
2022-09-13T00:34:02.915Z,0.90
2022-09-13T00:36:32.504Z,0.68
2022-09-13T00:39:00.670Z,0.88
2022-09-13T00:41:28.027Z,0.90
2022-09-13T00:44:00.573Z,0.90
2022-09-13T00:46:36.985Z,0.80
2022-09-13T00:49:35.988Z,0.77
2022-09-13T00:52:08.578Z,1.00
2022-09-13T00:54:49.684Z,0.90
2022-09-13T00:57:21.383Z,1.02
2022-09-13T01:00:13.859Z,1.42
2022-09-13T01:02:47.079Z,1.42
2022-09-13T01:05:16.824Z,1.27
2022-09-13T01:07:45.616Z,1.20
2022-09-13T01:10:18.854Z,1.10
2022-09-13T01:12:55.890Z,1.40
2022-09-13T01:15:30.846Z,1.20
2022-09-13T01:18:06.031Z,1.50
2022-09-13T01:21:01.098Z,1.10
2022-09-13T01:23:46.415Z,1.65
2022-09-13T01:26:52.676Z,1.00
2022-09-13T01:29:41.080Z,1.10
2022-09-13T01:32:57.747Z,1.10
2022-09-13T01:36:02.452Z,0.90
2022-09-13T01:39:08.143Z,1.58
2022-09-13T01:41:54.314Z,1.30
2022-09-13T01:45:15.875Z,1.55
2022-09-13T01:47:53.134Z,1.38
2022-09-13T02:06:10.445Z,1.17
2022-09-13T02:09:26.092Z,0.80
2022-09-13T02:12:03.294Z,1.10
2022-09-13T02:14:40.254Z,1.08
2022-09-13T02:20:48.858Z,0.80
2022-09-13T02:23:46.811Z,1.13
2022-09-13T02:26:15.291Z,1.17
2022-09-13T02:29:06.727Z,1.02
2022-09-13T02:35:06.753Z,1.15
2022-09-13T02:38:04.582Z,1.15
2022-09-13T02:40:45.577Z,1.25
2022-09-13T02:43:21.913Z,1.40
2022-09-13T02:46:15.942Z,1.10
2022-09-13T02:48:49.395Z,1.02
2022-09-13T02:51:57.706Z,1.23
2022-09-13T02:54:36.147Z,1.20
2022-09-13T02:57:12.542Z,1.17
2022-09-13T02:59:45.904Z,0.90
2022-09-13T03:02:17.114Z,1.30
2022-09-13T03:21:11.342Z,1.42
2022-09-13T03:24:23.582Z,1.02
2022-09-13T03:27:27.348Z,1.17
2022-09-13T03:30:06.040Z,1.00
2022-09-13T03:32:51.292Z,1.52
2022-09-13T03:35:37.154Z,1.20
2022-09-13T03:42:32.543Z,1.17
2022-09-13T03:45:04.988Z,1.23
2022-09-13T03:47:34.392Z,1.10
2022-09-13T03:50:03.464Z,1.17
2022-09-13T03:52:31.035Z,1.17
2022-09-13T03:55:08.836Z,1.17
2022-09-13T03:57:40.170Z,1.55
2022-09-13T04:00:08.060Z,1.50
2022-09-13T04:02:38.916Z,1.40
2022-09-13T04:05:09.568Z,1.08
2022-09-13T04:07:36.821Z,1.17
2022-09-13T04:10:04.303Z,1.40
2022-09-13T04:12:31.894Z,1.30
2022-09-13T04:14:59.422Z,1.25
2022-09-13T04:17:26.793Z,1.20
2022-09-13T04:19:54.003Z,1.30
2022-09-13T04:22:23.240Z,1.15
2022-09-13T04:24:52.906Z,1.20
2022-09-13T04:27:32.480Z,1.50
2022-09-13T04:30:12.641Z,1.17
2022-09-13T04:32:44.637Z,1.30
2022-09-13T04:35:13.232Z,1.80
2022-09-13T04:37:49.638Z,1.40
2022-09-13T04:43:25.467Z,1.33
2022-09-13T04:45:52.805Z,1.40
2022-09-13T04:48:20.188Z,1.35
2022-09-13T04:50:47.531Z,1.13
2022-09-13T04:53:18.837Z,1.17
2022-09-13T04:59:00.320Z,1.40
2022-09-13T05:01:28.222Z,1.33
2022-09-13T05:03:58.705Z,1.48
2022-09-13T05:06:25.958Z,1.50
2022-09-13T05:08:56.014Z,1.52
2022-09-13T05:11:27.069Z,1.30
2022-09-13T05:13:57.531Z,1.42
2022-09-13T05:16:26.904Z,1.20
2022-09-13T05:19:00.887Z,1.92
2022-09-13T05:21:28.900Z,1.52
2022-09-13T05:23:57.202Z,1.40
2022-09-13T05:26:42.620Z,1.75
2022-09-13T05:29:09.993Z,1.52
2022-09-13T05:31:59.855Z,1.38
2022-09-13T05:37:50.977Z,1.33
2022-09-13T05:40:18.296Z,1.60
2022-09-13T05:43:01.616Z,1.30
2022-09-13T05:46:41.299Z,1.50
2022-09-13T05:49:08.795Z,1.60
2022-09-13T05:52:11.511Z,1.60
2022-09-13T05:54:39.936Z,1.48
2022-09-13T05:59:59.359Z,1.70
2022-09-13T06:07:14.751Z,1.58
2022-09-13T06:09:45.315Z,1.38
2022-09-13T06:12:12.525Z,1.52
2022-09-13T06:14:41.894Z,1.20
2022-09-13T06:17:09.129Z,1.98
2022-09-13T06:20:50.321Z,2.40
2022-09-13T06:23:17.922Z,1.83
2022-09-13T06:28:49.450Z,1.63
2022-09-13T06:31:18.054Z,1.70
2022-09-13T06:33:47.783Z,1.88
2022-09-13T06:36:18.550Z,1.90
2022-09-13T06:38:48.705Z,2.22
2022-09-13T06:41:18.819Z,2.00
2022-09-13T06:43:47.409Z,2.10
2022-09-13T06:46:24.591Z,2.00
2022-09-13T06:48:53.302Z,2.03
2022-09-13T06:51:23.232Z,2.33
2022-09-13T06:54:06.742Z,2.42
2022-09-13T06:56:38.220Z,2.50
2022-09-13T06:59:31.223Z,2.08
2022-09-13T07:01:58.558Z,1.80
2022-09-13T07:04:25.953Z,1.80
2022-09-13T07:06:54.434Z,1.60
2022-09-13T07:09:22.398Z,1.60
2022-09-13T07:11:54.381Z,1.88
2022-09-13T07:14:25.848Z,1.95
2022-09-13T07:16:53.614Z,1.70
2022-09-13T07:19:23.320Z,2.25
2022-09-13T07:21:50.830Z,1.80
2022-09-13T07:24:52.162Z,2.25
2022-09-13T07:27:21.528Z,2.38
2022-09-13T07:29:50.848Z,1.95
2022-09-13T07:32:39.044Z,2.40
2022-09-13T07:35:08.035Z,2.33
2022-09-13T07:37:37.667Z,2.17
2022-09-13T07:40:05.436Z,2.00
2022-09-13T07:42:32.663Z,1.80
2022-09-13T07:45:02.125Z,1.60
2022-09-13T07:47:32.377Z,1.10
2022-09-13T07:52:56.700Z,1.00
2022-09-13T07:55:23.965Z,1.10
2022-09-13T07:57:54.257Z,0.80
2022-09-13T08:00:21.587Z,1.15
2022-09-13T08:02:48.936Z,0.82
2022-09-13T08:08:44.717Z,1.98
2022-09-13T08:11:25.398Z,1.40
2022-09-13T08:13:53.301Z,1.55
2022-09-13T08:16:22.436Z,1.60
2022-09-13T08:18:55.728Z,1.80
2022-09-13T08:21:24.399Z,2.30
2022-09-13T08:23:56.761Z,2.78
2022-09-13T08:26:33.763Z,1.77
2022-09-13T08:29:10.945Z,2.30
2022-09-13T08:31:45.362Z,2.40
2022-09-13T08:34:15.154Z,2.33
2022-09-13T08:36:45.887Z,2.40
2022-09-13T08:39:14.088Z,2.60
2022-09-13T08:41:49.962Z,1.70
2022-09-13T08:44:42.606Z,2.00
2022-09-13T08:47:33.102Z,2.42
2022-09-13T08:50:11.960Z,2.58
2022-09-13T08:53:29.619Z,2.60
2022-09-13T08:56:05.365Z,2.10
2022-09-13T08:58:35.445Z,2.25
2022-09-13T09:01:33.955Z,2.50
2022-09-13T09:04:27.395Z,2.50
2022-09-13T09:07:18.037Z,2.65
2022-09-13T09:09:57.623Z,2.20
2022-09-13T09:12:41.481Z,1.88
2022-09-13T09:15:14.736Z,1.98
2022-09-13T09:17:51.613Z,1.95
2022-09-13T09:20:28.523Z,2.08
2022-09-13T09:22:56.173Z,1.25
2022-09-13T09:25:33.348Z,1.77
2022-09-13T09:28:01.723Z,2.28
2022-09-13T09:30:56.847Z,2.20
2022-09-13T09:33:51.188Z,2.10
2022-09-13T09:36:40.565Z,2.30
2022-09-13T09:39:12.886Z,1.92
2022-09-13T09:41:44.285Z,1.90
2022-09-13T09:44:25.930Z,2.30
2022-09-13T09:47:12.173Z,2.15
2022-09-13T09:50:09.183Z,2.10
2022-09-13T09:52:42.899Z,2.08
2022-09-13T09:55:31.728Z,1.80
2022-09-13T09:58:00.643Z,2.65
2022-09-13T10:00:31.535Z,1.60
2022-09-13T10:03:03.529Z,2.08
2022-09-13T10:05:34.430Z,1.70
2022-09-13T10:08:05.307Z,2.00
2022-09-13T10:10:52.762Z,1.83
2022-09-13T10:16:49.985Z,2.70
2022-09-13T10:19:24.555Z,2.97
2022-09-13T10:22:05.630Z,3.25
2022-09-13T10:24:33.418Z,3.08
2022-09-13T10:27:04.034Z,3.78
2022-09-13T10:29:32.907Z,3.53
2022-09-13T10:32:08.244Z,3.10
2022-09-13T10:34:40.385Z,2.70
2022-09-13T10:37:33.711Z,2.42
2022-09-13T10:45:40.376Z,2.10
2022-09-13T10:48:16.458Z,2.80
2022-09-13T10:51:06.708Z,3.08
2022-09-13T10:53:42.513Z,2.53
2022-09-13T10:56:25.568Z,4.15
2022-09-13T10:59:41.926Z,4.50
2022-09-13T11:02:36.845Z,3.88
2022-09-13T11:06:05.799Z,2.97
2022-09-13T11:08:50.378Z,2.65
2022-09-13T11:11:41.417Z,4.53
2022-09-13T11:14:27.385Z,2.90
2022-09-13T11:17:06.541Z,3.70
2022-09-13T11:19:42.660Z,4.70
2022-09-13T11:25:41.423Z,4.22
2022-09-13T11:28:42.353Z,4.95
2022-09-13T11:31:15.862Z,4.70
2022-09-13T11:34:07.527Z,5.68
2022-09-13T11:36:46.694Z,5.95
2022-09-13T11:39:38.638Z,5.30
2022-09-13T11:42:28.844Z,6.80
2022-09-13T11:45:21.653Z,5.80
2022-09-13T11:48:17.517Z,5.15
2022-09-13T11:50:50.683Z,4.25
2022-09-13T11:53:30.294Z,4.43
2022-09-13T11:56:05.258Z,4.53
2022-09-13T11:59:00.272Z,3.80
2022-09-13T12:01:36.313Z,3.35
2022-09-13T12:04:14.172Z,4.47
2022-09-13T12:06:46.272Z,4.18
2022-09-13T12:09:54.021Z,4.95
2022-09-13T12:12:26.143Z,3.95
2022-09-13T12:14:58.334Z,4.85
2022-09-13T12:17:30.498Z,4.57
2022-09-13T12:20:03.157Z,4.18
2022-09-13T12:22:34.766Z,4.82
2022-09-13T12:25:18.923Z,4.57
2022-09-13T12:27:55.526Z,4.10
2022-09-13T12:30:26.070Z,5.20
2022-09-13T12:32:58.222Z,4.60
2022-09-13T12:35:49.418Z,4.28
2022-09-13T12:39:03.951Z,5.35
2022-09-13T12:41:59.388Z,3.63
2022-09-13T12:44:43.611Z,5.03
2022-09-13T12:47:52.600Z,4.07
2022-09-13T12:50:46.693Z,3.45
2022-09-13T12:53:31.809Z,3.67
2022-09-13T12:56:04.189Z,3.72
2022-09-13T13:02:37.401Z,3.30
2022-09-13T13:05:31.549Z,3.38
2022-09-13T13:08:27.678Z,4.00
2022-09-13T13:13:53.253Z,4.00
2022-09-13T13:16:41.018Z,4.13
2022-09-13T13:19:30.975Z,4.53
2022-09-13T13:22:35.905Z,4.63
2022-09-13T13:25:30.294Z,3.85
2022-09-13T13:27:58.644Z,3.40
2022-09-13T13:30:54.105Z,2.72
2022-09-13T13:33:26.720Z,3.85
2022-09-13T13:35:54.494Z,4.15
2022-09-13T13:38:49.161Z,4.07
2022-09-13T13:41:58.744Z,2.88
2022-09-13T13:44:25.995Z,3.30
2022-09-13T13:47:08.469Z,3.38
2022-09-13T13:49:41.227Z,3.65
2022-09-13T13:52:13.012Z,3.00
2022-09-13T13:54:47.308Z,4.20
2022-09-13T13:57:26.428Z,3.20
2022-09-13T14:00:24.295Z,3.20
2022-09-13T14:02:53.453Z,3.75
2022-09-13T14:05:48.012Z,3.10
2022-09-13T14:08:33.508Z,3.00
2022-09-13T14:11:25.134Z,2.97
2022-09-13T14:14:13.623Z,2.90
2022-09-13T14:17:34.919Z,2.97
2022-09-13T14:20:17.257Z,2.97
2022-09-13T14:22:44.600Z,2.70
2022-09-13T14:25:23.108Z,3.22
2022-09-13T14:27:55.832Z,2.58
2022-09-13T14:30:31.873Z,3.22
2022-09-13T14:32:59.623Z,3.10
2022-09-13T14:35:44.266Z,3.55
2022-09-13T14:38:23.714Z,2.85
2022-09-13T14:41:18.404Z,3.30
2022-09-13T14:43:47.064Z,3.05
2022-09-13T14:46:25.659Z,3.58
2022-09-13T14:49:02.705Z,2.92
2022-09-13T14:51:38.020Z,3.17
